Time;durP1;ratioP1;P1;durP2;ratioP2;P2;SDS_P1;SDS_P2;PMS_P1;PMS_P2;Temp;Humidity;BMP_temperature;BMP_pressure;BME280_temperature;BME280_humidity;BME280_pressure;Samples;Min_cycle;Max_cycle;Signal;HPM_P1;HPM_P2
2023/05/15 00:05:41;;;;;;;38.63;19.23;;;10.70;99.90;;;;;;4818921;29;20054;-84
2023/05/15 00:08:55;;;;;;;39.35;21.20;;;10.60;99.90;;;;;;4802856;29;20170;-82
2023/05/15 00:12:28;;;;;;;44.93;22.27;;;10.70;99.90;;;;;;4745826;30;20123;-82
2023/05/15 00:21:00;;;;;;;41.85;20.00;;;10.70;99.90;;;;;;5067730;28;20048;-83
2023/05/15 00:24:58;;;;;;;39.05;18.02;;;10.70;99.90;;;;;;4988608;28;20054;-81
2023/05/15 00:28:29;;;;;;;38.60;18.88;;;10.60;99.90;;;;;;4899490;29;20121;-82
2023/05/15 00:32:13;;;;;;;36.70;17.42;;;10.60;99.90;;;;;;4900267;29;20506;-81
2023/05/15 00:36:27;;;;;;;34.28;18.33;;;10.60;99.90;;;;;;4872468;29;20137;-81
2023/05/15 00:40:44;;;;;;;;;;;;;;;;;;;;;
2023/05/15 00:48:00;;;;;;;;;;;;;;;;;;;;;
2023/05/15 00:52:04;;;;;;;;;;;;;;;;;;;;;
2023/05/15 00:55:54;;;;;;;;;;;;;;;;;;;;;
2023/05/15 00:59:52;;;;;;;47.03;23.05;;;10.70;99.90;;;;;;5007984;28;20056;-81
2023/05/15 01:03:35;;;;;;;47.45;22.67;;;10.70;99.90;;;;;;5048013;28;20076;-84
2023/05/15 01:07:32;;;;;;;;;;;;;;;;;;;;;
2023/05/15 01:11:16;;;;;;;43.80;20.23;;;10.50;99.90;;;;;;4930497;29;20060;-80
2023/05/15 01:15:14;;;;;;;;;;;;;;;;;;;;;
2023/05/15 01:19:06;;;;;;;34.80;16.85;;;10.40;99.90;;;;;;4810431;29;20142;-79
2023/05/15 01:22:32;;;;;;;;;;;;;;;;;;;;;
2023/05/15 01:26:24;;;;;;;30.63;16.35;;;10.50;99.90;;;;;;4763257;30;20052;-81
2023/05/15 01:29:49;;;;;;;34.88;17.38;;;10.40;99.90;;;;;;4702134;30;20148;-79
2023/05/15 01:33:22;;;;;;;;;;;;;;;;;;;;;
2023/05/15 01:36:40;;;;;;;33.10;16.05;;;10.40;99.90;;;;;;4709278;30;20084;-80
2023/05/15 01:39:43;;;;;;;32.45;15.70;;;10.40;99.90;;;;;;4711350;30;20099;-82
2023/05/15 01:43:30;;;;;;;33.53;17.17;;;10.20;99.90;;;;;;4711035;30;20055;-81
2023/05/15 01:47:17;;;;;;;33.25;16.50;;;10.30;99.90;;;;;;4760710;30;20124;-80
2023/05/15 01:51:26;;;;;;;44.88;19.30;;;10.20;99.90;;;;;;4754735;30;20048;-79
2023/05/15 01:54:39;;;;;;;36.03;16.90;;;10.20;99.90;;;;;;4782410;29;20047;-79
2023/05/15 01:59:02;;;;;;;;;;;;;;;;;;;;;
2023/05/15 02:03:09;;;;;;;47.45;22.90;;;10.20;99.90;;;;;;5067789;28;20080;-78
2023/05/15 02:06:59;;;;;;;49.40;22.83;;;10.20;99.90;;;;;;4895141;29;20056;-80
2023/05/15 02:10:47;;;;;;;45.70;21.80;;;10.10;99.90;;;;;;4854317;29;20057;-81
2023/05/15 02:14:01;;;;;;;46.00;21.17;;;10.00;99.90;;;;;;4855533;29;20050;-78
2023/05/15 02:17:48;;;;;;;;;;;;;;;;;;;;;
2023/05/15 02:26:20;;;;;;;48.60;22.83;;;10.00;99.90;;;;;;5108283;28;20044;-79
2023/05/15 02:29:54;;;;;;;;;;;;;;;;;;;;;
2023/05/15 02:33:30;;;;;;;33.33;16.47;;;9.90;99.90;;;;;;5087216;28;20060;-79
2023/05/15 02:37:07;;;;;;;;;;;9.90;99.90;;;;;;5108833;28;20056;-80
2023/05/15 02:40:45;;;;;;;50.58;20.92;;;9.80;99.90;;;;;;5029047;28;19951;-82
2023/05/15 02:43:58;;;;;;;37.78;18.60;;;9.80;99.90;;;;;;4967898;28;20051;-81
2023/05/15 02:47:40;;;;;;;43.13;19.25;;;9.70;99.90;;;;;;4971439;28;20061;-80
2023/05/15 02:51:28;;;;;;;;;;;;;;;;;;;;;
2023/05/15 02:58:34;;;;;;;36.05;17.50;;;9.50;99.90;;;;;;4886634;28;20055;-82
2023/05/15 03:02:21;;;;;;;;;;;;;;;;;;;;;
2023/05/15 03:06:17;;;;;;;39.58;18.85;;;9.70;99.90;;;;;;4596853;27;15230697;-80
2023/05/15 03:09:59;;;;;;;;;;;9.70;99.90;;;;;;5028434;28;20402;-80
2023/05/15 03:14:22;;;;;;;;;;;;;;;;;;;;;
2023/05/15 03:22:24;;;;;;;32.15;15.23;;;9.50;99.90;;;;;;4855793;29;20041;-80
2023/05/15 03:25:29;;;;;;;29.63;15.68;;;9.50;99.90;;;;;;4144632;27;29135005;-78
2023/05/15 03:29:42;;;;;;;25.58;12.48;;;9.40;99.90;;;;;;5151863;27;20543;-79
2023/05/15 03:33:50;;;;;;;;;;;;;;;;;;;;;
2023/05/15 03:38:07;;;;;;;22.17;11.50;;;9.50;99.90;;;;;;5027698;28;20177;-80
2023/05/15 03:42:24;;;;;;;;;;;;;;;;;;;;;
2023/05/15 03:45:54;;;;;;;22.85;11.55;;;9.50;99.90;;;;;;4782866;29;20142;-80
2023/05/15 03:48:53;;;;;;;30.58;17.38;;;9.50;99.90;;;;;;4784835;29;20522;-79
2023/05/15 03:51:57;;;;;;;32.25;17.90;;;9.60;99.90;;;;;;4799136;29;20051;-79
2023/05/15 03:54:46;;;;;;;31.13;17.38;;;9.50;99.90;;;;;;4783174;29;20048;-79
2023/05/15 03:57:45;;;;;;;27.38;16.17;;;9.60;99.90;;;;;;4785385;29;20043;-79
2023/05/15 04:00:22;;;;;;;25.10;14.90;;;9.60;99.90;;;;;;4783546;29;20047;-78
2023/05/15 04:03:17;;;;;;;23.63;14.00;;;9.60;99.90;;;;;;4768943;30;20458;-78
2023/05/15 04:06:22;;;;;;;25.23;15.93;;;9.70;99.90;;;;;;4771934;29;20082;-80
2023/05/15 04:09:20;;;;;;;28.77;17.92;;;9.70;99.90;;;;;;4802158;29;20111;-79
2023/05/15 04:12:28;;;;;;;;;;;;;;;;;;;;;
2023/05/15 04:15:38;;;;;;;21.83;12.70;;;9.80;99.90;;;;;;4916279;29;20100;-79
2023/05/15 04:18:35;;;;;;;26.40;16.17;;;9.90;99.90;;;;;;4912992;29;20386;-79
2023/05/15 04:21:56;;;;;;;22.05;12.60;;;9.90;99.90;;;;;;4990937;28;20624;-80
2023/05/15 04:25:30;;;;;;;;;;;;;;;;;;;;;
2023/05/15 04:29:17;;;;;;;15.47;11.07;;;10.00;99.90;;;;;;5149949;27;20292;-80
2023/05/15 04:32:09;;;;;;;11.77;8.48;;;10.00;99.90;;;;;;5048308;28;20081;-79
2023/05/15 04:35:20;;;;;;;;;;;;;;;;;;;;;
2023/05/15 04:38:23;;;;;;;14.55;9.10;;;10.10;99.90;;;;;;5051368;28;20127;-80
2023/05/15 04:41:32;;;;;;;;;;;;;;;;;;;;;
2023/05/15 04:44:44;;;;;;;13.85;9.45;;;10.20;99.90;;;;;;5052423;28;20128;-80
2023/05/15 04:47:48;;;;;;;12.55;7.25;;;10.30;99.90;;;;;;4993570;28;20050;-79
2023/05/15 04:50:42;;;;;;;15.70;9.85;;;10.20;99.90;;;;;;4975076;28;20051;-79
2023/05/15 04:53:35;;;;;;;13.18;9.73;;;10.20;99.90;;;;;;4986882;28;20051;-80
2023/05/15 04:56:37;;;;;;;15.80;8.43;;;10.30;99.90;;;;;;4974775;28;20059;-79
2023/05/15 04:59:28;;;;;;;17.63;11.60;;;10.30;99.90;;;;;;4991460;28;20546;-79
2023/05/15 05:02:42;;;;;;;17.58;11.07;;;10.30;99.90;;;;;;4991136;28;20050;-79
2023/05/15 05:05:45;;;;;;;20.63;11.77;;;10.30;99.90;;;;;;4997222;28;20049;-79
2023/05/15 05:08:46;;;;;;;13.90;9.05;;;10.40;99.90;;;;;;5091603;28;20123;-80
2023/05/15 05:11:47;;;;;;;18.42;12.05;;;10.40;99.90;;;;;;5060001;28;20055;-80
2023/05/15 05:14:57;;;;;;;16.38;11.50;;;10.50;99.90;;;;;;5089718;28;20516;-79
2023/05/15 05:18:20;;;;;;;14.43;9.73;;;10.60;99.90;;;;;;5102152;27;20050;-78
2023/05/15 05:21:15;;;;;;;;;;;10.60;99.90;;;;;;5133826;27;20047;-80
2023/05/15 05:24:36;;;;;;;;;;;;;;;;;;;;;
2023/05/15 05:27:43;;;;;;;11.80;7.57;;;10.70;99.90;;;;;;5137370;27;20150;-79
2023/05/15 05:30:46;;;;;;;14.10;8.15;;;10.80;99.90;;;;;;5133343;27;20142;-79
2023/05/15 05:33:38;;;;;;;18.02;10.32;;;10.90;99.90;;;;;;5133383;27;20066;-79
2023/05/15 05:36:45;;;;;;;24.10;12.82;;;10.90;99.90;;;;;;5136701;27;20403;-80
2023/05/15 05:39:55;;;;;;;;;;;;;;;;;;;;;
2023/05/15 05:43:19;;;;;;;15.52;10.60;;;11.00;99.90;;;;;;5155653;27;20129;-80
2023/05/15 05:46:22;;;;;;;18.00;10.35;;;11.10;99.90;;;;;;5136983;27;20501;-79
2023/05/15 05:49:31;;;;;;;15.07;9.68;;;11.10;99.90;;;;;;5133244;27;20130;-79
2023/05/15 05:52:29;;;;;;;17.58;10.73;;;11.20;99.90;;;;;;5142643;27;20046;-80
2023/05/15 05:55:24;;;;;;;16.30;10.35;;;11.30;99.90;;;;;;5153826;27;20422;-80
2023/05/15 05:58:26;;;;;;;18.70;10.30;;;11.40;99.90;;;;;;5136927;27;20049;-80
2023/05/15 06:01:24;;;;;;;13.55;10.27;;;11.40;99.90;;;;;;5133731;27;20039;-83
2023/05/15 06:04:30;;;;;;;14.50;10.07;;;11.50;99.90;;;;;;5136998;27;20047;-80
2023/05/15 06:07:16;;;;;;;15.48;10.60;;;11.60;99.90;;;;;;5136322;27;20053;-80
2023/05/15 06:10:00;;;;;;;13.00;9.48;;;11.70;99.90;;;;;;5146824;27;20062;-80
2023/05/15 06:13:07;;;;;;;11.75;7.85;;;11.70;99.90;;;;;;5097713;27;20058;-81
2023/05/15 06:16:24;;;;;;;9.90;7.05;;;11.70;99.90;;;;;;5120601;27;20072;-81
2023/05/15 06:19:36;;;;;;;8.32;5.75;;;11.80;99.90;;;;;;5134538;27;20055;-81
2023/05/15 06:22:39;;;;;;;6.63;5.10;;;11.80;99.90;;;;;;5113058;27;20048;-81
2023/05/15 06:25:13;;;;;;;8.75;5.43;;;11.80;99.90;;;;;;5119555;27;20035;-80
2023/05/15 06:27:48;;;;;;;8.20;6.25;;;11.90;99.90;;;;;;5114852;27;20356;-80
2023/05/15 06:30:48;;;;;;;9.15;6.75;;;11.90;99.90;;;;;;5124930;27;20579;-80
2023/05/15 06:34:01;;;;;;;;;;;;;;;;;;;;;
2023/05/15 06:36:52;;;;;;;7.97;5.60;;;12.20;99.90;;;;;;5130429;27;20050;-82
2023/05/15 06:40:04;;;;;;;10.05;6.65;;;12.30;99.90;;;;;;5130750;27;22146;-81
2023/05/15 06:43:25;;;;;;;7.30;5.80;;;12.50;99.90;;;;;;5133908;27;20044;-81
2023/05/15 06:46:47;;;;;;;6.32;5.15;;;12.50;99.90;;;;;;5132780;27;20035;-81
2023/05/15 06:49:46;;;;;;;6.68;5.03;;;12.70;99.90;;;;;;5133429;27;20082;-82
2023/05/15 06:53:03;;;;;;;8.40;5.63;;;12.80;99.90;;;;;;5130848;27;20043;-81
2023/05/15 06:56:20;;;;;;;;;;;;;;;;;;;;;
2023/05/15 06:59:13;;;;;;;8.40;5.53;;;12.80;99.90;;;;;;5069843;28;20083;-80
2023/05/15 07:02:09;;;;;;;7.45;5.55;;;12.70;99.90;;;;;;5052349;28;20045;-81
2023/05/15 07:04:52;;;;;;;7.55;5.95;;;12.80;99.90;;;;;;5052136;28;20049;-81
2023/05/15 07:07:47;;;;;;;;;;;;;;;;;;;;;
2023/05/15 07:10:40;;;;;;;6.50;5.22;;;13.10;99.90;;;;;;5070403;28;20052;-83
2023/05/15 07:13:37;;;;;;;7.05;5.35;;;12.90;99.90;;;;;;5053417;28;20053;-83
2023/05/15 07:16:36;;;;;;;6.53;4.45;;;12.90;99.90;;;;;;5051661;28;20151;-84
2023/05/15 07:19:38;;;;;;;6.10;4.10;;;12.90;99.90;;;;;;5050114;28;20057;-82
2023/05/15 07:22:38;;;;;;;8.25;5.55;;;12.80;99.90;;;;;;5068959;28;20062;-82
2023/05/15 07:25:39;;;;;;;6.75;5.38;;;13.00;99.90;;;;;;5062819;28;20040;-81
2023/05/15 07:28:41;;;;;;;6.20;3.88;;;13.10;99.90;;;;;;5020298;28;20055;-88
2023/05/15 07:31:49;;;;;;;;;;;;;;;;;;;;;
2023/05/15 07:34:50;;;;;;;6.78;4.57;;;13.30;99.90;;;;;;5053515;28;20055;-82
2023/05/15 07:38:07;;;;;;;6.22;4.80;;;13.40;99.90;;;;;;5114334;28;20059;-84
2023/05/15 07:41:31;;;;;;;7.15;4.40;;;13.40;99.90;;;;;;5130105;28;20062;-84
2023/05/15 07:44:55;;;;;;;6.13;4.32;;;13.50;99.90;;;;;;5131959;28;20515;-84
2023/05/15 07:48:04;;;;;;;;;;;;;;;;;;;;;
2023/05/15 07:50:55;;;;;;;9.40;4.50;;;13.90;99.90;;;;;;5032429;28;20049;-83
2023/05/15 07:54:05;;;;;;;6.28;3.95;;;13.90;99.90;;;;;;5032957;28;20061;-81
2023/05/15 07:57:26;;;;;;;5.47;4.03;;;13.90;99.90;;;;;;5028197;28;20057;-83
2023/05/15 08:00:34;;;;;;;5.32;4.40;;;14.20;99.90;;;;;;5033067;28;20075;-81
2023/05/15 08:03:51;;;;;;;5.30;4.25;;;14.30;99.90;;;;;;5048858;28;20085;-81
2023/05/15 08:06:41;;;;;;;6.60;4.03;;;14.30;99.90;;;;;;5043465;28;20059;-85
2023/05/15 08:09:47;;;;;;;4.90;3.88;;;14.30;99.90;;;;;;5044976;28;20099;-84
2023/05/15 08:12:46;;;;;;;6.45;3.83;;;14.20;99.90;;;;;;5034980;28;20088;-85
2023/05/15 08:15:47;;;;;;;9.63;5.53;;;14.40;99.90;;;;;;5053132;28;20128;-85
2023/05/15 08:19:04;;;;;;;6.45;5.00;;;14.60;99.90;;;;;;5052490;28;20056;-84
2023/05/15 08:22:10;;;;;;;10.48;4.47;;;14.60;99.90;;;;;;5034784;28;20048;-85
2023/05/15 08:25:07;;;;;;;8.15;5.72;;;14.70;99.90;;;;;;5115865;27;20142;-84
2023/05/15 08:28:22;;;;;;;6.38;5.07;;;14.80;99.90;;;;;;5116136;27;20040;-81
2023/05/15 08:31:31;;;;;;;4.50;3.83;;;14.70;99.90;;;;;;5100596;27;20104;-81
2023/05/15 08:34:32;;;;;;;8.98;5.55;;;14.80;99.90;;;;;;5133887;27;20125;-83
2023/05/15 08:37:34;;;;;;;6.38;5.05;;;15.00;99.90;;;;;;5130897;27;20051;-82
2023/05/15 08:40:32;;;;;;;6.78;4.95;;;14.90;99.90;;;;;;5133347;27;20073;-82
2023/05/15 08:43:34;;;;;;;5.80;4.53;;;15.00;99.90;;;;;;5134842;27;20039;-82
2023/05/15 08:46:48;;;;;;;5.80;3.78;;;15.20;99.90;;;;;;5117018;27;20050;-83
2023/05/15 08:50:03;;;;;;;6.32;4.00;;;15.30;99.90;;;;;;5131928;27;20047;-81
2023/05/15 08:53:23;;;;;;;;;;;;;;;;;;;;;
2023/05/15 08:56:38;;;;;;;;;;;;;;;;;;;;;
2023/05/15 08:59:49;;;;;;;7.33;4.77;;;15.60;99.90;;;;;;5114872;28;20061;-81
2023/05/15 09:03:05;;;;;;;5.20;3.13;;;15.70;99.90;;;;;;5113048;28;20126;-83
2023/05/15 09:06:05;;;;;;;7.93;4.18;;;15.70;99.90;;;;;;5080339;28;20130;-84
2023/05/15 09:09:36;;;;;;;5.70;3.25;;;15.80;99.90;;;;;;5115356;28;20040;-83
2023/05/15 09:12:50;;;;;;;6.47;4.15;;;15.80;99.90;;;;;;5096704;28;20079;-82
2023/05/15 09:15:51;;;;;;;4.45;3.67;;;15.90;99.90;;;;;;5112032;28;20058;-82
2023/05/15 09:18:56;;;;;;;4.72;3.60;;;16.10;99.90;;;;;;5126421;27;20511;-82
2023/05/15 09:22:22;;;;;;;4.97;3.78;;;16.20;99.90;;;;;;5135434;27;20051;-85
2023/05/15 09:25:54;;;;;;;7.93;4.28;;;16.40;99.90;;;;;;5116894;27;20384;-83
2023/05/15 09:29:13;;;;;;;10.77;5.68;;;16.70;99.90;;;;;;5134908;27;20481;-84
2023/05/15 09:32:37;;;;;;;;;;;;;;;;;;;;;
2023/05/15 09:35:44;;;;;;;6.07;3.83;;;16.70;99.90;;;;;;5050288;28;20418;-82
2023/05/15 09:39:09;;;;;;;6.18;5.00;;;17.00;99.90;;;;;;5033963;28;20423;-85
2023/05/15 09:42:11;;;;;;;4.68;3.75;;;17.20;99.90;;;;;;5046858;28;20056;-82
2023/05/15 09:45:19;;;;;;;;;;;;;;;;;;;;;
2023/05/15 09:48:10;;;;;;;5.82;4.25;;;17.10;99.90;;;;;;5034139;28;20564;-82
2023/05/15 09:51:03;;;;;;;5.22;3.92;;;17.10;99.90;;;;;;5016908;28;20045;-82
2023/05/15 09:54:07;;;;;;;4.95;3.00;;;17.40;99.90;;;;;;5007239;28;20053;-83
2023/05/15 10:00:35;;;;;;;4.22;3.15;;;17.70;99.90;;;;;;5031226;28;20210;-83
2023/05/15 10:03:42;;;;;;;5.32;3.08;;;17.80;99.90;;;;;;5037607;28;20065;-82
2023/05/15 10:06:38;;;;;;;6.13;3.47;;;17.60;99.90;;;;;;5050221;28;20045;-80
2023/05/15 10:09:55;;;;;;;;;;;;;;;;;;;;;
2023/05/15 10:12:51;;;;;;;4.93;2.85;;;17.50;99.90;;;;;;5052072;27;20047;-86
2023/05/15 10:16:07;;;;;;;;;;;;;;;;;;;;;
2023/05/15 10:19:32;;;;;;;5.40;2.85;;;17.50;99.90;;;;;;5134380;27;20047;-84
2023/05/15 10:22:12;;;;;;;6.20;2.75;;;17.70;99.90;;;;;;5130711;27;20050;-85
2023/05/15 10:24:58;;;;;;;4.22;3.03;;;17.90;99.90;;;;;;5138031;27;20439;-85
2023/05/15 10:28:19;;;;;;;;;;;;;;;;;;;;;
2023/05/15 10:31:02;;;;;;;;;;;17.80;99.90;;;;;;5151619;27;20055;-85
2023/05/15 10:34:18;;;;;;;3.50;3.20;;;18.00;99.90;;;;;;5143335;27;19919;-87
2023/05/15 10:37:03;;;;;;;;;;;18.00;99.90;;;;;;5052628;28;20071;-85
2023/05/15 10:39:55;;;;;;;4.50;3.90;;;17.80;99.90;;;;;;5070985;28;19927;-87
2023/05/15 10:43:01;;;;;;;;;;;;;;;;;;;;;
2023/05/15 10:46:13;;;;;;;3.50;3.20;;;18.10;99.90;;;;;;5050857;28;20132;-86
2023/05/15 10:49:36;;;;;;;5.60;2.83;;;17.90;99.90;;;;;;5030930;28;20052;-88
2023/05/15 10:53:05;;;;;;;4.18;3.53;;;17.80;99.90;;;;;;5034796;28;20092;-86
2023/05/15 10:56:04;;;;;;;3.97;2.78;;;17.90;99.90;;;;;;5024402;28;20094;-84
2023/05/15 10:59:32;;;;;;;;;;;;;;;;;;;;;
2023/05/15 11:02:39;;;;;;;5.25;3.40;;;18.60;99.90;;;;;;5039442;28;20464;-86
2023/05/15 11:05:57;;;;;;;4.70;2.88;;;18.00;99.90;;;;;;5000624;28;20053;-83
2023/05/15 11:09:09;;;;;;;4.57;2.60;;;17.50;99.90;;;;;;4993612;28;20085;-87
2023/05/15 11:12:25;;;;;;;5.40;3.03;;;17.60;99.90;;;;;;4991590;28;20514;-85
2023/05/15 11:15:09;;;;;;;4.90;3.80;;;17.80;99.90;;;;;;4991822;28;20426;-86
2023/05/15 11:18:04;;;;;;;5.88;3.92;;;17.50;99.90;;;;;;5010205;28;20049;-84
2023/05/15 11:21:13;;;;;;;3.55;3.00;;;17.30;99.90;;;;;;4993007;28;20053;-85
2023/05/15 11:24:22;;;;;;;7.55;4.18;;;17.50;99.90;;;;;;4969037;28;20105;-84
2023/05/15 11:27:56;;;;;;;;;;;;;;;;;;;;;
2023/05/15 11:30:47;;;;;;;2.85;2.38;;;17.50;99.90;;;;;;4969575;28;20106;-85
2023/05/15 11:33:28;;;;;;;4.85;3.55;;;17.10;99.90;;;;;;4967471;28;20567;-85
2023/05/15 11:36:00;;;;;;;4.45;3.22;;;17.10;99.90;;;;;;4971147;28;20061;-86
2023/05/15 11:39:08;;;;;;;4.35;3.03;;;17.30;99.90;;;;;;4969619;28;20078;-84
2023/05/15 11:42:18;;;;;;;3.67;2.40;;;17.20;99.90;;;;;;4950151;29;20063;-84
2023/05/15 11:45:13;;;;;;;3.50;1.67;;;17.20;99.90;;;;;;4951095;28;20401;-84
2023/05/15 11:48:06;;;;;;;4.93;3.17;;;17.30;99.90;;;;;;4960886;28;20479;-84
2023/05/15 11:51:04;;;;;;;4.10;2.85;;;17.10;99.90;;;;;;4958911;28;20050;-83
2023/05/15 11:53:56;;;;;;;2.53;1.80;;;17.00;99.90;;;;;;4965870;28;20051;-84
2023/05/15 11:57:07;;;;;;;;;;;;;;;;;;;;;
2023/05/15 12:00:24;;;;;;;4.30;2.60;;;17.00;99.90;;;;;;4965685;28;20085;-83
2023/05/15 12:03:34;;;;;;;6.68;3.38;;;17.30;99.90;;;;;;5040042;28;20083;-82
2023/05/15 12:06:36;;;;;;;3.15;2.40;;;16.90;99.90;;;;;;5067474;27;20050;-83
2023/05/15 12:09:33;;;;;;;;;;;16.80;99.90;;;;;;5147830;27;20404;-84
2023/05/15 12:12:13;;;;;;;5.20;2.63;;;17.00;99.90;;;;;;5154641;27;20006;-85
2023/05/15 12:14:41;;;;;;;3.08;2.28;;;17.00;99.90;;;;;;5153567;27;20043;-86
2023/05/15 12:17:09;;;;;;;3.28;2.42;;;17.00;99.90;;;;;;5138389;27;20043;-86
2023/05/15 12:19:37;;;;;;;3.15;2.38;;;16.80;99.90;;;;;;5157573;27;20050;-86
2023/05/15 12:22:09;;;;;;;4.75;2.45;;;17.00;99.90;;;;;;5157489;27;20546;-85
2023/05/15 12:24:46;;;;;;;2.80;2.40;;;16.80;99.90;;;;;;5136956;27;20055;-85
2023/05/15 12:27:23;;;;;;;4.32;2.55;;;17.00;99.90;;;;;;5139114;27;20051;-85
2023/05/15 12:29:53;;;;;;;5.03;2.45;;;17.10;99.90;;;;;;5138462;27;20049;-85
2023/05/15 12:32:21;;;;;;;3.08;2.58;;;17.20;99.90;;;;;;5156518;27;20043;-84
2023/05/15 12:34:51;;;;;;;3.55;2.00;;;17.20;99.90;;;;;;5156701;27;20073;-84
2023/05/15 12:37:21;;;;;;;6.80;2.75;;;17.10;99.90;;;;;;5156444;27;20123;-84
2023/05/15 12:39:56;;;;;;;3.60;2.22;;;17.10;99.90;;;;;;5156047;27;20073;-85
2023/05/15 12:42:27;;;;;;;4.22;1.75;;;17.20;99.90;;;;;;5156398;27;20043;-84
2023/05/15 12:45:17;;;;;;;4.30;2.70;;;17.30;99.90;;;;;;5156341;27;20046;-84
2023/05/15 12:47:59;;;;;;;3.17;2.05;;;17.30;99.90;;;;;;5137595;27;20137;-85
2023/05/15 12:50:32;;;;;;;4.55;3.05;;;17.80;99.90;;;;;;5137604;27;20115;-86
2023/05/15 12:53:02;;;;;;;5.05;2.28;;;17.40;99.90;;;;;;5129842;27;20038;-87
2023/05/15 12:55:35;;;;;;;4.45;3.25;;;17.30;99.90;;;;;;5155769;27;20074;-87
2023/05/15 12:58:14;;;;;;;4.75;2.80;;;17.40;99.90;;;;;;5154964;27;20039;-85
2023/05/15 13:01:06;;;;;;;;;;;;;;;;;;;;;
2023/05/15 13:03:33;;;;;;;5.68;2.75;;;17.80;99.90;;;;;;5156956;27;20039;-87
2023/05/15 13:06:02;;;;;;;5.07;2.17;;;18.00;99.90;;;;;;5138261;27;20035;-83
2023/05/15 13:08:40;;;;;;;5.47;3.30;;;18.00;99.90;;;;;;5156686;27;20089;-84
2023/05/15 13:11:31;;;;;;;3.35;2.70;;;17.90;99.90;;;;;;5156569;27;20038;-85
2023/05/15 13:14:15;;;;;;;3.83;2.17;;;17.90;99.90;;;;;;5147087;27;20133;-85
2023/05/15 13:16:48;;;;;;;4.28;2.15;;;17.80;99.90;;;;;;5137975;27;20045;-84
2023/05/15 13:19:35;;;;;;;5.18;3.35;;;17.50;99.90;;;;;;5155450;27;20035;-85
2023/05/15 13:22:05;;;;;;;5.70;3.17;;;17.40;99.90;;;;;;5156113;27;20394;-85
2023/05/15 13:25:22;;;;;;;;;;;;;;;;;;;;;
2023/05/15 13:27:58;;;;;;;2.78;2.35;;;17.20;99.90;;;;;;5137613;27;20121;-85
2023/05/15 13:31:22;;;;;;;4.35;2.00;;;16.90;99.90;;;;;;5154541;27;20035;-83
2023/05/15 13:34:53;;;;;;;5.78;2.40;;;16.70;99.90;;;;;;4239300;27;26208938;-86
2023/05/15 13:38:19;;;;;;;2.35;1.80;;;16.70;99.90;;;;;;5172456;27;20121;-85
2023/05/15 13:41:11;;;;;;;4.00;2.15;;;16.60;99.90;;;;;;5144182;27;20114;-83
2023/05/15 13:44:16;;;;;;;2.58;1.55;;;16.60;99.90;;;;;;5154542;27;20054;-84
2023/05/15 13:47:15;;;;;;;3.00;1.85;;;16.90;99.90;;;;;;5151169;27;20043;-85
2023/05/15 13:50:20;;;;;;;3.60;2.40;;;17.00;99.90;;;;;;5149264;27;20483;-82
2023/05/15 13:53:24;;;;;;;4.57;2.70;;;16.60;99.90;;;;;;5156180;27;20050;-85
2023/05/15 13:56:30;;;;;;;3.50;2.13;;;16.40;99.90;;;;;;5151373;27;20047;-84
2023/05/15 13:59:09;;;;;;;3.78;2.15;;;16.00;99.90;;;;;;5156576;27;20391;-82
2023/05/15 14:02:25;;;;;;;;;;;;;;;;;;;;;
2023/05/15 14:05:16;;;;;;;3.05;2.00;;;15.50;99.90;;;;;;5134315;27;20050;-84
2023/05/15 14:08:30;;;;;;;;;;;;;;;;;;;;;
2023/05/15 14:11:51;;;;;;;4.25;2.97;;;15.60;99.90;;;;;;5150600;27;20042;-87
2023/05/15 14:15:10;;;;;;;3.58;2.97;;;15.40;99.90;;;;;;5032463;28;20135;-83
2023/05/15 14:18:25;;;;;;;3.95;2.40;;;15.40;99.90;;;;;;5067070;28;20114;-85
2023/05/15 14:21:48;;;;;;;3.30;1.92;;;15.00;99.90;;;;;;5064708;28;20127;-81
2023/05/15 14:24:44;;;;;;;5.63;3.00;;;15.00;99.90;;;;;;5010328;28;20060;-82
2023/05/15 14:27:34;;;;;;;3.03;1.52;;;14.80;99.90;;;;;;5010649;28;20120;-81
2023/05/15 14:30:47;;;;;;;3.42;2.60;;;14.90;99.90;;;;;;5026755;28;20054;-82
2023/05/15 14:34:01;;;;;;;4.88;3.15;;;14.60;99.90;;;;;;5010377;28;20092;-81
2023/05/15 14:37:06;;;;;;;4.13;1.75;;;14.60;99.90;;;;;;5023228;28;20045;-82
2023/05/15 14:40:32;;;;;;;3.97;2.20;;;14.50;99.90;;;;;;5008540;28;20050;-82
2023/05/15 14:43:43;;;;;;;;;;;;;;;;;;;;;
2023/05/15 14:46:49;;;;;;;5.20;3.42;;;14.30;99.90;;;;;;5012270;28;20473;-82
2023/05/15 14:49:27;;;;;;;2.80;2.20;;;14.20;99.90;;;;;;5035628;28;20115;-84
2023/05/15 14:51:58;;;;;;;3.65;2.35;;;14.10;99.90;;;;;;5067636;28;20056;-84
2023/05/15 14:54:34;;;;;;;3.70;3.35;;;14.00;99.90;;;;;;5093218;28;20071;-82
2023/05/15 14:57:04;;;;;;;5.32;3.10;;;14.00;99.90;;;;;;5091960;28;20055;-88
2023/05/15 14:59:37;;;;;;;2.78;2.15;;;14.00;99.90;;;;;;5095814;28;20055;-81
2023/05/15 15:02:07;;;;;;;5.00;2.83;;;14.10;99.90;;;;;;5115689;28;20031;-83
2023/05/15 15:04:35;;;;;;;5.38;2.90;;;14.10;99.90;;;;;;5115497;28;20412;-82
2023/05/15 15:07:09;;;;;;;5.28;3.20;;;14.20;99.90;;;;;;5115535;28;20035;-83
2023/05/15 15:09:36;;;;;;;4.55;3.22;;;14.00;99.90;;;;;;5111226;28;20445;-83
2023/05/15 15:12:05;;;;;;;2.80;2.17;;;14.20;99.90;;;;;;5115304;28;20086;-83
2023/05/15 15:14:32;;;;;;;8.55;3.40;;;14.20;99.90;;;;;;5112984;28;20404;-82
2023/05/15 15:16:58;;;;;;;5.60;4.10;;;13.90;99.90;;;;;;5098785;28;20492;-82
2023/05/15 15:19:24;;;;;;;3.72;3.00;;;13.80;99.90;;;;;;5115256;28;20039;-82
2023/05/15 15:21:51;;;;;;;5.75;3.30;;;13.70;99.90;;;;;;5115276;28;20064;-82
2023/05/15 15:24:20;;;;;;;2.95;2.40;;;13.60;99.90;;;;;;5109360;28;20054;-81
2023/05/15 15:26:46;;;;;;;4.43;2.33;;;13.60;99.90;;;;;;5114263;28;20042;-81
2023/05/15 15:29:13;;;;;;;3.28;2.38;;;13.50;99.90;;;;;;5114591;28;20075;-83
2023/05/15 15:31:40;;;;;;;4.15;2.65;;;13.30;99.90;;;;;;5113949;28;20132;-81
2023/05/15 15:34:10;;;;;;;4.03;2.85;;;13.30;99.90;;;;;;5123342;27;20490;-82
2023/05/15 15:36:37;;;;;;;3.83;2.10;;;13.20;99.90;;;;;;5156016;27;20117;-82
2023/05/15 15:39:03;;;;;;;4.38;2.80;;;13.20;99.90;;;;;;5148701;27;20043;-83
2023/05/15 15:41:30;;;;;;;6.35;4.03;;;13.10;99.90;;;;;;5135394;27;20057;-83
2023/05/15 15:43:56;;;;;;;4.32;3.33;;;13.10;99.90;;;;;;5117186;27;20067;-82
2023/05/15 15:46:22;;;;;;;3.67;2.50;;;13.10;99.90;;;;;;5116849;27;20111;-84
2023/05/15 15:48:48;;;;;;;4.47;2.97;;;12.90;99.90;;;;;;5135076;27;20043;-82
2023/05/15 15:51:14;;;;;;;3.95;3.17;;;12.70;99.90;;;;;;5116602;27;20095;-84
2023/05/15 15:53:41;;;;;;;3.47;2.58;;;12.50;99.90;;;;;;5141213;27;20042;-82
2023/05/15 15:56:08;;;;;;;4.07;3.03;;;12.70;99.90;;;;;;5117548;27;20042;-82
2023/05/15 15:58:38;;;;;;;4.35;2.80;;;12.70;99.90;;;;;;5154120;27;20058;-82
2023/05/15 16:01:06;;;;;;;5.28;3.83;;;12.60;99.90;;;;;;5155404;27;20058;-81
2023/05/15 16:03:34;;;;;;;7.38;3.42;;;12.50;99.90;;;;;;5155641;27;20051;-82
2023/05/15 16:06:06;;;;;;;7.18;4.32;;;12.50;99.90;;;;;;5155862;27;20046;-82
2023/05/15 16:08:41;;;;;;;6.45;3.90;;;12.50;99.90;;;;;;5137589;27;20039;-81
2023/05/15 16:11:09;;;;;;;5.47;3.42;;;12.50;99.90;;;;;;5134971;27;20117;-82
2023/05/15 16:13:37;;;;;;;5.47;2.72;;;12.40;99.90;;;;;;5135761;27;20039;-80
2023/05/15 16:16:04;;;;;;;4.82;2.95;;;12.40;99.90;;;;;;5134841;27;20046;-82
2023/05/15 16:18:30;;;;;;;4.50;2.70;;;12.40;99.90;;;;;;5116405;27;20061;-83
2023/05/15 16:20:56;;;;;;;5.47;3.38;;;12.30;99.90;;;;;;5152659;27;20034;-84
2023/05/15 16:23:23;;;;;;;7.03;3.92;;;12.30;99.90;;;;;;5136091;27;20039;-85
2023/05/15 16:26:15;;;;;;;5.50;3.55;;;12.30;99.90;;;;;;5155385;27;20398;-80
2023/05/15 16:29:12;;;;;;;6.97;3.40;;;12.30;99.90;;;;;;5122238;27;20130;-82
2023/05/15 16:32:32;;;;;;;;;;;;;;;;;;;;;
2023/05/15 16:36:02;;;;;;;;;;;;;;;;;;;;;
2023/05/15 16:38:58;;;;;;;6.28;2.70;;;12.20;99.90;;;;;;5151647;27;20051;-82
2023/05/15 16:41:59;;;;;;;4.20;2.05;;;12.10;99.90;;;;;;5088892;28;20500;-81
2023/05/15 16:44:59;;;;;;;4.75;3.00;;;12.10;99.90;;;;;;5068807;28;20052;-81
2023/05/15 16:48:08;;;;;;;4.47;2.58;;;12.10;99.90;;;;;;5079022;28;20032;-81
2023/05/15 16:51:07;;;;;;;;;;;;;;;;;;;;;
2023/05/15 16:54:00;;;;;;;3.10;1.75;;;11.90;99.90;;;;;;5086701;28;20463;-82
2023/05/15 16:56:50;;;;;;;2.88;1.55;;;11.90;99.90;;;;;;5090968;28;20131;-83
2023/05/15 16:59:59;;;;;;;2.95;2.10;;;11.90;99.90;;;;;;5070505;28;20060;-83
2023/05/15 17:03:06;;;;;;;;;;;;;;;;;;;;;
2023/05/15 17:06:08;;;;;;;3.10;2.15;;;11.80;99.90;;;;;;5088388;28;20290;-82
2023/05/15 17:09:28;;;;;;;;;;;;;;;;;;;;;
2023/05/15 17:12:10;;;;;;;4.28;2.13;;;11.80;99.90;;;;;;5101020;27;20438;-81
2023/05/15 17:15:03;;;;;;;4.05;2.22;;;11.70;99.90;;;;;;5133002;27;20042;-83
2023/05/15 17:18:43;;;;;;;;;;;;;;;;;;;;;
2023/05/15 17:21:36;;;;;;;3.40;2.60;;;11.70;99.90;;;;;;5097474;27;20100;-81
2023/05/15 17:24:44;;;;;;;3.50;1.95;;;11.60;99.90;;;;;;5132493;27;20054;-81
2023/05/15 17:28:00;;;;;;;;;;;;;;;;;;;;;
2023/05/15 17:31:04;;;;;;;6.70;2.08;;;11.60;99.90;;;;;;5133541;27;20368;-83
2023/05/15 17:34:31;;;;;;;;;;;;;;;;;;;;;
2023/05/15 17:37:47;;;;;;;3.08;1.65;;;11.50;99.90;;;;;;5123896;27;20487;-81
2023/05/15 17:40:45;;;;;;;2.97;1.40;;;11.30;99.90;;;;;;5153654;27;20408;-81